createdAt,value
2022-08-05T00:00:51.339Z,45.52
2022-08-05T00:06:04.679Z,45.61
2022-08-05T00:11:20.642Z,45.58
2022-08-05T00:16:36.165Z,45.16
2022-08-05T00:21:51.088Z,45.43
2022-08-05T00:26:52.861Z,45.39
2022-08-05T00:32:12.743Z,45.30
2022-08-05T00:37:15.841Z,45.83
2022-08-05T00:42:31.410Z,45.58
2022-08-05T00:47:56.461Z,45.67
2022-08-05T00:52:55.524Z,45.89
2022-08-05T00:57:59.114Z,45.83
2022-08-05T01:03:00.475Z,45.49
2022-08-05T01:08:30.812Z,45.71
2022-08-05T01:13:57.849Z,45.48
2022-08-05T01:18:56.435Z,45.87
2022-08-05T01:24:14.869Z,45.82
2022-08-05T01:29:23.174Z,46.18
2022-08-05T01:34:28.986Z,46.07
2022-08-05T01:39:46.548Z,47.00
2022-08-05T01:44:54.165Z,47.28
2022-08-05T01:50:01.277Z,47.40
2022-08-05T01:55:07.429Z,47.57
2022-08-05T02:00:12.591Z,48.14
2022-08-05T02:05:14.812Z,48.23
2022-08-05T02:10:17.266Z,48.24
2022-08-05T02:15:25.026Z,48.67
2022-08-05T02:20:45.009Z,48.95
2022-08-05T02:25:50.649Z,48.75
2022-08-05T02:30:58.657Z,49.27
2022-08-05T02:36:01.495Z,49.45
2022-08-05T02:41:14.531Z,49.28
2022-08-05T02:46:27.486Z,49.83
2022-08-05T02:52:04.119Z,49.84
2022-08-05T02:56:50.070Z,50.11
2022-08-05T03:01:58.153Z,50.11
2022-08-05T03:07:00.338Z,50.04
2022-08-05T03:12:01.839Z,50.08
2022-08-05T03:17:08.736Z,49.86
2022-08-05T03:22:16.801Z,49.67
2022-08-05T03:27:58.028Z,49.32
2022-08-05T03:32:52.359Z,49.23
2022-08-05T03:37:57.153Z,49.02
2022-08-05T03:42:59.088Z,49.09
2022-08-05T03:48:03.881Z,48.34
2022-08-05T03:55:34.573Z,49.09
2022-08-05T03:58:35.080Z,49.52
2022-08-05T04:03:39.882Z,49.36
2022-08-05T04:09:01.060Z,49.76
2022-08-05T04:14:01.991Z,50.63
2022-08-05T04:19:04.340Z,51.10
2022-08-05T04:24:19.355Z,50.73
2022-08-05T04:29:23.208Z,50.81
2022-08-05T04:34:33.117Z,50.86
2022-08-05T04:39:35.654Z,50.37
2022-08-05T04:44:36.354Z,50.91
2022-08-05T04:50:03.071Z,50.55
2022-08-05T04:54:59.795Z,50.82
2022-08-05T05:00:15.669Z,50.00
2022-08-05T05:05:28.092Z,50.57
2022-08-05T05:10:30.549Z,50.36
2022-08-05T05:16:00.449Z,49.90
2022-08-05T05:20:56.584Z,49.26
2022-08-05T05:25:59.156Z,49.21
2022-08-05T05:31:01.350Z,48.86
2022-08-05T05:36:08.442Z,48.66
2022-08-05T05:41:10.985Z,48.10
2022-08-05T05:46:18.783Z,48.19
2022-08-05T05:51:22.153Z,47.00
2022-08-05T05:56:26.026Z,47.08
2022-08-05T06:01:37.599Z,47.13
2022-08-05T06:06:42.512Z,46.91
2022-08-05T06:11:43.313Z,46.25
2022-08-05T06:17:02.279Z,46.13
2022-08-05T06:22:26.779Z,44.85
2022-08-05T06:28:10.966Z,43.89
2022-08-05T06:32:48.228Z,43.36
2022-08-05T06:37:58.127Z,42.64
2022-08-05T06:42:59.601Z,42.30
2022-08-05T06:48:36.778Z,40.99
2022-08-05T06:53:27.911Z,39.38
2022-08-05T06:58:36.141Z,39.19
2022-08-05T07:03:37.388Z,40.37
2022-08-05T07:08:39.376Z,42.72
2022-08-05T07:14:00.485Z,44.73
2022-08-05T07:19:01.095Z,46.25
2022-08-05T07:24:04.012Z,48.05
2022-08-05T07:29:12.203Z,49.47
2022-08-05T07:34:13.949Z,50.10
2022-08-05T07:40:03.790Z,50.94
2022-08-05T07:44:38.130Z,51.60
2022-08-05T07:49:43.470Z,52.01
2022-08-05T07:54:56.510Z,52.51
2022-08-05T07:59:58.798Z,52.42
2022-08-05T08:04:59.894Z,52.18
2022-08-05T08:10:02.365Z,51.10
2022-08-05T08:15:04.467Z,51.09
2022-08-05T08:20:43.477Z,50.97
2022-08-05T08:25:59.377Z,51.36
2022-08-05T08:30:50.247Z,51.63
2022-08-05T08:35:52.971Z,52.16
2022-08-05T08:41:01.512Z,52.29
2022-08-05T08:46:04.154Z,52.15
2022-08-05T08:51:30.621Z,51.30
2022-08-05T08:56:28.098Z,51.41
2022-08-05T09:01:28.783Z,50.84
2022-08-05T09:06:31.709Z,50.04
2022-08-05T09:11:53.059Z,50.26
2022-08-05T09:16:56.600Z,49.44
2022-08-05T09:22:22.056Z,48.63
2022-08-05T09:28:04.420Z,48.32
2022-08-05T09:32:54.261Z,48.57
2022-08-05T09:38:17.389Z,48.69
2022-08-05T09:43:41.207Z,48.61
2022-08-05T09:48:42.720Z,48.10
2022-08-05T09:53:59.337Z,48.44
2022-08-05T09:59:05.108Z,48.25
2022-08-05T10:04:11.059Z,47.97
2022-08-05T10:09:27.278Z,47.62
2022-08-05T10:14:32.338Z,46.68
2022-08-05T10:20:03.865Z,47.12
2022-08-05T10:24:54.091Z,47.04
2022-08-05T10:30:06.497Z,46.82
2022-08-05T10:35:17.788Z,46.16
2022-08-05T10:40:28.319Z,45.50
2022-08-05T10:45:41.772Z,45.11
2022-08-05T10:51:22.490Z,44.62
2022-08-05T10:56:26.330Z,44.46
2022-08-05T11:01:55.623Z,43.98
2022-08-05T11:07:08.242Z,43.54
2022-08-05T11:12:45.445Z,42.91
2022-08-05T11:17:59.486Z,42.77
2022-08-05T11:24:04.503Z,41.45
2022-08-05T11:29:13.231Z,41.04
2022-08-05T11:34:18.991Z,41.15
2022-08-05T11:40:00.836Z,40.26
2022-08-05T11:45:23.074Z,39.63
2022-08-05T11:50:29.471Z,39.10
2022-08-05T11:55:31.725Z,38.07
2022-08-05T12:00:38.392Z,37.30
2022-08-05T12:05:43.635Z,36.88
2022-08-05T12:10:46.458Z,35.20
2022-08-05T12:15:49.622Z,35.44
2022-08-05T12:20:52.420Z,35.70
2022-08-05T12:25:56.407Z,33.79
2022-08-05T12:30:58.343Z,33.95
2022-08-05T12:36:07.196Z,33.40
2022-08-05T12:41:13.261Z,32.70
2022-08-05T12:46:29.082Z,33.14
2022-08-05T12:52:13.585Z,32.29
2022-08-05T12:56:54.613Z,32.68
2022-08-05T13:02:07.478Z,32.22
2022-08-05T13:07:31.010Z,32.65
2022-08-05T13:12:42.472Z,31.71
2022-08-05T13:17:55.834Z,31.08
2022-08-05T13:23:01.367Z,30.59
2022-08-05T13:28:07.918Z,30.95
2022-08-05T13:33:14.185Z,30.56
2022-08-05T13:38:28.271Z,29.24
2022-08-05T13:43:45.759Z,30.43
2022-08-05T13:48:58.548Z,30.29
2022-08-05T13:54:02.258Z,30.44
2022-08-05T13:59:06.089Z,30.43
2022-08-05T14:04:38.410Z,29.68
2022-08-05T14:09:46.050Z,28.97
2022-08-05T14:14:47.334Z,29.77
2022-08-05T14:19:55.112Z,30.10
2022-08-05T14:24:58.844Z,29.73
2022-08-05T14:29:59.675Z,30.25
2022-08-05T14:35:00.622Z,29.53
2022-08-05T14:40:02.691Z,29.81
2022-08-05T14:45:04.357Z,29.63
2022-08-05T14:50:18.407Z,29.91
2022-08-05T14:55:21.301Z,30.31
2022-08-05T15:00:22.371Z,30.62
2022-08-05T15:05:29.828Z,30.63
2022-08-05T15:10:32.645Z,30.34
2022-08-05T15:15:54.127Z,30.49
2022-08-05T15:20:54.029Z,30.82
2022-08-05T15:25:59.733Z,30.68
2022-08-05T15:31:05.671Z,31.07
2022-08-05T15:36:16.648Z,30.19
2022-08-05T15:41:22.584Z,30.96
2022-08-05T15:46:25.252Z,30.38
2022-08-05T15:52:03.924Z,30.70
2022-08-05T15:56:49.197Z,31.20
2022-08-05T16:01:52.730Z,31.16
2022-08-05T16:06:55.433Z,30.83
2022-08-05T16:11:57.789Z,30.25
2022-08-05T16:16:58.485Z,30.86
2022-08-05T16:22:02.709Z,31.81
2022-08-05T16:27:07.300Z,31.27
2022-08-05T16:32:09.644Z,31.45
2022-08-05T16:38:03.685Z,30.44
2022-08-05T16:42:34.456Z,28.86
2022-08-05T16:47:48.391Z,29.37
2022-08-05T16:52:56.462Z,28.67
2022-08-05T16:58:00.190Z,29.60
2022-08-05T17:03:02.201Z,29.96
2022-08-05T17:08:02.832Z,30.23
2022-08-05T17:13:04.929Z,31.28
2022-08-05T17:18:17.695Z,34.92
2022-08-05T17:24:04.370Z,35.80
2022-08-05T17:28:41.631Z,37.74
2022-08-05T17:33:48.351Z,37.06
2022-08-05T17:38:51.804Z,34.95
2022-08-05T17:43:54.402Z,34.24
2022-08-05T17:48:55.335Z,33.76
2022-08-05T17:53:55.937Z,37.60
2022-08-05T17:58:58.271Z,41.67
2022-08-05T18:04:04.760Z,44.47
2022-08-05T18:09:06.567Z,46.72
2022-08-05T18:14:20.559Z,47.79
2022-08-05T18:19:22.903Z,50.42
2022-08-05T18:24:26.491Z,52.55
2022-08-05T18:29:40.688Z,54.58
2022-08-05T18:34:43.185Z,56.70
2022-08-05T18:40:34.363Z,60.09
2022-08-05T18:45:06.748Z,62.51
2022-08-05T18:50:42.358Z,64.12
2022-08-05T18:55:46.765Z,66.02
2022-08-05T19:00:49.401Z,66.91
2022-08-05T19:06:11.397Z,68.73
2022-08-05T19:11:10.758Z,69.48
2022-08-05T19:16:22.141Z,69.43
2022-08-05T19:21:34.208Z,70.40
2022-08-05T19:26:36.118Z,70.72
2022-08-05T19:31:57.355Z,71.56
2022-08-05T19:36:58.189Z,72.01
2022-08-05T19:42:07.158Z,72.46
2022-08-05T19:47:11.347Z,72.27
2022-08-05T19:52:31.029Z,72.30
2022-08-05T19:57:49.319Z,73.61
2022-08-05T20:02:54.429Z,73.07
2022-08-05T20:07:59.117Z,72.90
2022-08-05T20:13:01.054Z,72.38
2022-08-05T20:18:04.318Z,70.80
2022-08-05T20:23:11.740Z,69.34
2022-08-05T20:28:14.686Z,69.14
2022-08-05T20:33:17.163Z,68.13
2022-08-05T20:38:26.660Z,66.79
2022-08-05T20:43:57.410Z,66.18
2022-08-05T20:48:51.152Z,65.48
2022-08-05T20:53:56.398Z,64.89
2022-08-05T20:59:00.166Z,64.26
2022-08-05T21:04:17.870Z,63.91
2022-08-05T21:09:18.547Z,64.23
2022-08-05T21:14:20.358Z,64.41
2022-08-05T21:19:28.566Z,64.81
2022-08-05T21:24:29.565Z,65.27
2022-08-05T21:29:31.318Z,65.36
2022-08-05T21:34:35.431Z,65.56
2022-08-05T21:39:38.434Z,65.63
2022-08-05T21:44:41.546Z,65.17
2022-08-05T21:49:59.335Z,64.66
2022-08-05T21:55:06.410Z,63.92
2022-08-05T22:00:11.119Z,63.66
2022-08-05T22:05:16.453Z,62.70
2022-08-05T22:10:18.401Z,63.69
2022-08-05T22:16:02.601Z,64.33
2022-08-05T22:20:51.574Z,64.27
2022-08-05T22:26:14.084Z,64.45
2022-08-05T22:31:15.634Z,63.12
2022-08-05T22:36:17.925Z,62.83
2022-08-05T22:42:05.355Z,61.81
2022-08-05T22:46:41.940Z,62.26
2022-08-05T22:52:05.452Z,62.20
2022-08-05T22:57:08.566Z,65.41
2022-08-05T23:02:09.352Z,69.71
2022-08-05T23:07:11.385Z,71.39
2022-08-05T23:12:13.649Z,73.14
2022-08-05T23:17:34.105Z,74.32
2022-08-05T23:22:39.825Z,74.72
2022-08-05T23:27:57.716Z,74.70
2022-08-05T23:33:01.231Z,75.35
2022-08-05T23:38:03.190Z,75.67
2022-08-05T23:43:11.510Z,75.10
2022-08-05T23:48:26.411Z,74.02
2022-08-05T23:53:28.798Z,73.62
2022-08-05T23:58:47.507Z,73.41
